createdAt,value
2019-01-19T00:00:28.932Z,3.37
2019-01-19T00:03:22.003Z,3.32
2019-01-19T00:06:10.347Z,3.34
2019-01-19T00:08:44.789Z,3.30
2019-01-19T00:11:36.678Z,3.28
2019-01-19T00:14:13.357Z,3.24
2019-01-19T00:17:06.444Z,3.22
2019-01-19T00:19:55.035Z,3.21
2019-01-19T00:22:52.281Z,3.22
2019-01-19T00:25:45.507Z,3.23
2019-01-19T00:28:24.714Z,3.22
2019-01-19T00:31:20.433Z,3.19
2019-01-19T00:34:20.790Z,3.13
2019-01-19T00:36:57.490Z,3.09
2019-01-19T00:39:46.033Z,3.05
2019-01-19T00:42:22.609Z,3.01
2019-01-19T00:45:20.152Z,2.95
2019-01-19T00:48:14.694Z,2.89
2019-01-19T00:50:57.554Z,2.93
2019-01-19T00:53:34.508Z,2.92
2019-01-19T00:56:32.368Z,2.86
2019-01-19T00:59:11.769Z,2.85
2019-01-19T01:02:03.337Z,2.78
2019-01-19T01:04:45.845Z,2.76
2019-01-19T01:07:37.693Z,2.76
2019-01-19T01:10:17.234Z,2.80
2019-01-19T01:13:21.019Z,2.86
2019-01-19T01:15:57.670Z,2.87
2019-01-19T01:18:46.304Z,2.87
2019-01-19T01:21:28.648Z,2.85
2019-01-19T01:24:19.721Z,2.75
2019-01-19T01:26:56.315Z,2.67
2019-01-19T01:29:58.785Z,2.67
2019-01-19T01:32:38.286Z,2.68
2019-01-19T01:35:32.805Z,2.73
2019-01-19T01:38:20.167Z,2.74
2019-01-19T01:41:29.929Z,2.73
2019-01-19T01:44:12.272Z,2.79
2019-01-19T01:47:07.180Z,2.80
2019-01-19T01:49:43.764Z,2.75
2019-01-19T01:52:29.008Z,2.75
2019-01-19T01:55:17.478Z,2.78
2019-01-19T01:57:54.266Z,2.76
2019-01-19T02:00:48.922Z,2.77
2019-01-19T02:03:43.375Z,2.69
2019-01-19T02:06:40.467Z,2.63
2019-01-19T02:09:33.674Z,2.68
2019-01-19T02:12:31.678Z,2.69
2019-01-19T02:15:12.502Z,2.73
2019-01-19T02:17:52.116Z,2.74
2019-01-19T02:20:47.203Z,2.70
2019-01-19T02:23:35.637Z,2.69
2019-01-19T02:26:21.111Z,2.73
2019-01-19T02:29:13.016Z,2.78
2019-01-19T02:31:49.691Z,2.82
2019-01-19T02:34:26.341Z,2.78
2019-01-19T02:37:08.601Z,2.82
2019-01-19T02:40:03.253Z,2.86
2019-01-19T02:42:45.698Z,2.87
2019-01-19T02:45:43.126Z,2.85
2019-01-19T02:48:19.629Z,2.85
2019-01-19T02:50:56.156Z,2.82
2019-01-19T02:53:44.708Z,2.76
2019-01-19T02:56:23.951Z,2.70
2019-01-19T02:59:00.827Z,2.71
2019-01-19T03:01:54.214Z,2.68
2019-01-19T03:04:45.930Z,2.69
2019-01-19T03:07:28.127Z,2.68
2019-01-19T03:10:27.373Z,2.63
2019-01-19T03:13:13.030Z,2.59
2019-01-19T03:16:18.302Z,2.57
2019-01-19T03:18:57.723Z,2.58
2019-01-19T03:21:45.973Z,2.57
2019-01-19T03:24:25.682Z,2.50
2019-01-19T03:27:07.927Z,2.42
2019-01-19T03:30:18.759Z,2.43
2019-01-19T03:33:00.875Z,2.39
2019-01-19T03:35:38.428Z,2.33
2019-01-19T03:38:17.419Z,2.36
2019-01-19T03:41:21.256Z,2.35
2019-01-19T03:44:09.604Z,2.30
2019-01-19T03:46:55.147Z,2.36
2019-01-19T03:49:34.499Z,2.36
2019-01-19T03:52:17.067Z,2.33
2019-01-19T03:55:18.762Z,2.31
2019-01-19T03:58:07.041Z,2.23
2019-01-19T04:00:43.629Z,2.26
2019-01-19T04:03:26.800Z,2.25
2019-01-19T04:06:21.229Z,2.21
2019-01-19T04:09:30.960Z,2.15
2019-01-19T04:12:13.453Z,2.13
2019-01-19T04:15:12.708Z,2.10
2019-01-19T04:18:07.416Z,2.06
2019-01-19T04:21:03.734Z,2.09
2019-01-19T04:23:37.548Z,2.10
2019-01-19T04:26:12.343Z,2.09
2019-01-19T04:28:46.048Z,2.07
2019-01-19T04:31:19.495Z,2.05
2019-01-19T04:33:53.280Z,2.04
2019-01-19T04:36:27.326Z,2.03
2019-01-19T04:39:01.314Z,2.03
2019-01-19T04:41:34.754Z,2.04
2019-01-19T04:44:08.160Z,2.04
2019-01-19T04:46:41.583Z,2.04
2019-01-19T04:49:14.985Z,2.04
2019-01-19T04:51:48.414Z,1.98
2019-01-19T04:54:21.747Z,1.93
2019-01-19T04:56:55.572Z,1.85
2019-01-19T04:59:28.896Z,1.85
2019-01-19T05:02:02.422Z,1.90
2019-01-19T05:04:35.731Z,1.90
2019-01-19T05:07:09.095Z,1.91
2019-01-19T05:09:42.422Z,1.91
2019-01-19T05:12:15.786Z,1.89
2019-01-19T05:14:49.120Z,1.81
2019-01-19T05:17:22.565Z,1.76
2019-01-19T05:19:55.896Z,1.76
2019-01-19T05:22:29.340Z,1.80
2019-01-19T05:25:02.673Z,1.74
2019-01-19T05:27:36.053Z,1.69
2019-01-19T05:30:17.599Z,1.67
2019-01-19T05:32:51.277Z,1.59
2019-01-19T05:35:24.658Z,1.64
2019-01-19T05:37:58.055Z,1.65
2019-01-19T05:40:31.389Z,1.66
2019-01-19T05:43:05.202Z,1.67
2019-01-19T05:45:38.602Z,1.67
2019-01-19T05:48:11.967Z,1.66
2019-01-19T05:50:45.366Z,1.61
2019-01-19T05:53:18.730Z,1.56
2019-01-19T05:55:52.146Z,1.50
2019-01-19T05:58:25.524Z,1.45
2019-01-19T06:00:58.851Z,1.42
2019-01-19T06:03:32.214Z,1.38
2019-01-19T06:06:05.983Z,1.38
2019-01-19T06:08:39.542Z,1.35
2019-01-19T06:11:12.856Z,1.32
2019-01-19T06:13:46.214Z,1.21
2019-01-19T06:16:19.679Z,1.21
2019-01-19T06:18:53.374Z,1.21
2019-01-19T06:21:27.769Z,1.12
2019-01-19T06:24:01.200Z,1.08
2019-01-19T06:26:34.612Z,1.04
2019-01-19T06:29:07.997Z,1.00
2019-01-19T06:31:41.322Z,0.97
2019-01-19T06:34:14.701Z,0.98
2019-01-19T06:36:54.884Z,0.99
2019-01-19T06:39:23.242Z,0.99
2019-01-19T06:41:56.643Z,0.98
2019-01-19T06:44:30.083Z,0.98
2019-01-19T06:47:03.417Z,0.98
2019-01-19T06:49:36.940Z,0.94
2019-01-19T06:52:11.113Z,0.80
2019-01-19T06:54:44.472Z,0.78
2019-01-19T06:57:17.808Z,0.79
2019-01-19T06:59:51.166Z,0.80
2019-01-19T07:02:24.566Z,0.76
2019-01-19T07:04:58.035Z,0.75
2019-01-19T07:07:31.365Z,0.79
2019-01-19T07:10:07.984Z,0.81
2019-01-19T07:12:41.381Z,0.80
2019-01-19T07:15:15.091Z,0.74
2019-01-19T07:17:48.501Z,0.75
2019-01-19T07:20:27.697Z,0.75
2019-01-19T07:23:01.107Z,0.73
2019-01-19T07:25:34.475Z,0.68
2019-01-19T07:28:07.992Z,0.67
2019-01-19T07:30:41.419Z,0.65
2019-01-19T07:33:14.816Z,0.60
2019-01-19T07:35:48.254Z,0.63
2019-01-19T07:38:21.685Z,0.64
2019-01-19T07:40:55.132Z,0.64
2019-01-19T07:43:28.842Z,0.66
2019-01-19T07:46:02.695Z,0.67
2019-01-19T07:48:36.112Z,0.68
2019-01-19T07:51:09.554Z,0.69
2019-01-19T07:53:42.953Z,0.71
2019-01-19T07:56:16.361Z,0.67
2019-01-19T07:58:49.641Z,0.63
2019-01-19T08:01:23.072Z,0.63
2019-01-19T08:03:56.500Z,0.63
2019-01-19T08:06:30.068Z,0.63
2019-01-19T08:09:05.118Z,0.55
2019-01-19T08:11:38.571Z,0.59
2019-01-19T08:14:11.976Z,0.66
2019-01-19T08:16:45.483Z,0.77
2019-01-19T08:19:18.881Z,0.89
2019-01-19T08:21:52.311Z,0.98
2019-01-19T08:24:25.640Z,0.98
2019-01-19T08:26:59.000Z,1.04
2019-01-19T08:29:32.472Z,1.12
2019-01-19T08:32:06.325Z,1.19
2019-01-19T08:34:39.674Z,1.24
2019-01-19T08:37:13.213Z,1.24
2019-01-19T08:39:46.951Z,1.28
2019-01-19T08:42:20.318Z,1.38
2019-01-19T08:44:54.604Z,1.49
2019-01-19T08:47:27.971Z,1.52
2019-01-19T08:50:01.299Z,1.60
2019-01-19T08:52:34.740Z,1.72
2019-01-19T08:55:11.101Z,1.83
2019-01-19T08:57:44.640Z,1.92
2019-01-19T09:00:19.608Z,1.98
2019-01-19T09:02:53.379Z,2.08
2019-01-19T09:05:26.799Z,2.17
2019-01-19T09:08:00.231Z,2.23
2019-01-19T09:10:33.573Z,2.32
2019-01-19T09:13:07.446Z,2.42
2019-01-19T09:15:40.853Z,2.46
2019-01-19T09:18:14.714Z,2.54
2019-01-19T09:20:48.043Z,2.65
2019-01-19T09:23:28.894Z,2.75
2019-01-19T09:26:02.223Z,2.90
2019-01-19T09:28:35.575Z,3.04
2019-01-19T09:31:08.978Z,3.11
2019-01-19T09:33:42.426Z,3.20
2019-01-19T09:36:15.764Z,3.26
2019-01-19T09:38:49.261Z,3.32
2019-01-19T09:41:22.656Z,3.35
2019-01-19T09:43:56.029Z,3.35
2019-01-19T09:46:29.425Z,3.40
2019-01-19T09:49:02.784Z,3.43
2019-01-19T09:51:36.333Z,3.50
2019-01-19T09:54:09.761Z,3.48
2019-01-19T09:56:43.155Z,3.51
2019-01-19T09:59:16.529Z,3.57
2019-01-19T10:01:49.859Z,3.66
2019-01-19T10:04:23.692Z,3.72
2019-01-19T10:06:57.094Z,3.78
2019-01-19T10:09:30.524Z,3.84
2019-01-19T10:12:04.012Z,3.93
2019-01-19T10:14:37.438Z,4.05
2019-01-19T10:17:10.834Z,4.27
2019-01-19T10:19:44.272Z,4.32
2019-01-19T10:22:17.597Z,4.37
2019-01-19T10:24:50.978Z,4.41
2019-01-19T10:27:24.379Z,4.47
2019-01-19T10:29:58.052Z,4.54
2019-01-19T10:32:31.468Z,4.54
2019-01-19T10:35:08.077Z,4.62
2019-01-19T10:37:41.480Z,4.67
2019-01-19T10:40:18.733Z,4.73
2019-01-19T10:42:52.136Z,4.61
2019-01-19T10:45:27.806Z,4.62
2019-01-19T10:48:01.423Z,4.66
2019-01-19T10:50:34.959Z,4.69
2019-01-19T10:53:08.358Z,4.76
2019-01-19T10:55:41.786Z,4.79
2019-01-19T10:58:15.114Z,4.87
2019-01-19T11:00:48.567Z,4.83
2019-01-19T11:03:21.894Z,4.76
2019-01-19T11:05:55.395Z,4.96
2019-01-19T11:08:28.722Z,5.01
2019-01-19T11:11:02.152Z,5.09
2019-01-19T11:13:35.480Z,5.13
2019-01-19T11:16:09.353Z,5.05
2019-01-19T11:18:42.745Z,5.19
2019-01-19T11:21:16.255Z,5.22
2019-01-19T11:23:49.648Z,5.28
2019-01-19T11:26:23.544Z,5.32
2019-01-19T11:28:56.864Z,5.30
2019-01-19T11:31:32.058Z,5.25
2019-01-19T11:34:05.433Z,5.44
2019-01-19T11:36:38.792Z,5.48
2019-01-19T11:39:12.190Z,5.49
2019-01-19T11:41:45.544Z,5.64
2019-01-19T11:44:18.860Z,5.63
2019-01-19T11:46:52.287Z,5.75
2019-01-19T11:49:25.607Z,5.72
2019-01-19T11:51:59.039Z,5.76
2019-01-19T11:54:32.435Z,5.78
2019-01-19T11:57:05.794Z,5.83
2019-01-19T11:59:39.181Z,5.84
2019-01-19T12:02:12.625Z,5.87
2019-01-19T12:04:45.960Z,5.83
2019-01-19T12:07:19.973Z,5.88
2019-01-19T12:09:53.380Z,5.89
2019-01-19T12:12:26.886Z,5.88
2019-01-19T12:15:00.273Z,5.88
2019-01-19T12:17:34.271Z,6.18
2019-01-19T12:20:19.816Z,6.38
2019-01-19T12:22:53.388Z,6.52
2019-01-19T12:25:26.857Z,6.62
2019-01-19T12:28:00.208Z,6.68
2019-01-19T12:30:34.676Z,6.76
2019-01-19T12:33:08.186Z,6.67
2019-01-19T12:35:41.575Z,6.71
2019-01-19T12:38:14.993Z,6.91
2019-01-19T12:40:48.568Z,7.01
2019-01-19T12:43:21.918Z,7.01
2019-01-19T12:45:55.946Z,7.04
2019-01-19T12:48:29.470Z,7.07
2019-01-19T12:51:02.863Z,7.05
2019-01-19T12:53:36.295Z,6.87
2019-01-19T12:56:09.619Z,6.87
2019-01-19T12:58:43.045Z,6.80
2019-01-19T13:01:16.439Z,6.76
2019-01-19T13:03:50.195Z,6.68
2019-01-19T13:06:29.493Z,6.61
2019-01-19T13:09:12.270Z,6.57
2019-01-19T13:11:47.430Z,6.63
2019-01-19T13:14:21.345Z,6.58
2019-01-19T13:17:23.580Z,6.51
2019-01-19T13:20:15.464Z,6.45
2019-01-19T13:22:54.887Z,6.43
2019-01-19T13:25:34.419Z,6.42
2019-01-19T13:28:29.270Z,6.36
2019-01-19T13:31:08.649Z,6.38
2019-01-19T13:34:07.748Z,6.31
2019-01-19T13:36:50.164Z,6.29
2019-01-19T13:39:35.631Z,6.26
2019-01-19T13:42:30.299Z,6.16
2019-01-19T13:45:23.673Z,6.12
2019-01-19T13:48:12.444Z,6.07
2019-01-19T13:50:52.095Z,6.00
2019-01-19T13:53:46.695Z,5.98
2019-01-19T13:56:28.834Z,5.94
2019-01-19T13:59:11.376Z,5.82
2019-01-19T14:02:04.098Z,5.82
2019-01-19T14:05:00.301Z,5.79
2019-01-19T14:07:55.012Z,5.75
2019-01-19T14:10:31.539Z,5.78
2019-01-19T14:13:14.015Z,5.79
2019-01-19T14:15:56.419Z,5.72
2019-01-19T14:18:33.095Z,5.71
2019-01-19T14:21:21.816Z,5.66
2019-01-19T14:24:07.221Z,5.64
2019-01-19T14:26:49.950Z,5.62
2019-01-19T14:29:47.517Z,5.61
2019-01-19T14:32:30.536Z,5.48
2019-01-19T14:35:26.626Z,5.46
2019-01-19T14:38:31.786Z,5.40
2019-01-19T14:41:26.599Z,5.42
2019-01-19T14:44:12.130Z,5.36
2019-01-19T14:47:07.187Z,5.33
2019-01-19T14:49:43.714Z,5.30
2019-01-19T14:52:32.354Z,5.27
2019-01-19T14:55:11.682Z,5.22
2019-01-19T14:57:48.351Z,5.15
2019-01-19T15:00:51.908Z,5.13
2019-01-19T15:03:35.233Z,5.08
2019-01-19T15:06:34.684Z,5.01
2019-01-19T15:09:16.482Z,4.96
2019-01-19T15:12:09.806Z,4.93
2019-01-19T15:15:06.781Z,4.89
2019-01-19T15:17:46.527Z,4.82
2019-01-19T15:20:29.121Z,4.74
2019-01-19T15:23:23.020Z,4.67
2019-01-19T15:26:31.370Z,4.55
2019-01-19T15:29:22.425Z,4.46
2019-01-19T15:32:22.484Z,4.38
2019-01-19T15:35:14.294Z,4.15
2019-01-19T15:37:59.634Z,4.06
2019-01-19T15:40:55.970Z,4.05
2019-01-19T15:43:53.222Z,3.99
2019-01-19T15:46:48.388Z,3.94
2019-01-19T15:49:41.052Z,3.91
2019-01-19T15:52:20.303Z,3.85
2019-01-19T15:54:59.264Z,3.77
2019-01-19T15:57:48.035Z,3.69
2019-01-19T16:00:30.524Z,3.60
2019-01-19T16:03:35.245Z,3.54
2019-01-19T16:06:29.974Z,3.48
2019-01-19T16:09:23.548Z,3.40
2019-01-19T16:12:12.127Z,3.32
2019-01-19T16:15:05.385Z,3.28
2019-01-19T16:18:13.840Z,3.14
2019-01-19T16:21:08.484Z,3.12
2019-01-19T16:23:59.869Z,2.99
2019-01-19T16:26:36.569Z,2.88
2019-01-19T16:29:21.955Z,2.84
2019-01-19T16:32:08.068Z,2.84
2019-01-19T16:35:10.088Z,2.85
2019-01-19T16:37:49.647Z,2.83
2019-01-19T16:40:28.965Z,2.79
2019-01-19T16:43:23.765Z,2.79
2019-01-19T16:46:09.364Z,2.75
2019-01-19T16:48:55.094Z,2.68
2019-01-19T16:51:37.251Z,2.60
2019-01-19T16:54:26.419Z,2.58
2019-01-19T16:57:29.975Z,2.59
2019-01-19T17:00:18.483Z,2.62
2019-01-19T17:03:19.422Z,2.64
2019-01-19T17:05:58.820Z,2.58
2019-01-19T17:08:38.269Z,2.47
2019-01-19T17:11:35.481Z,2.47
2019-01-19T17:14:31.441Z,2.46
2019-01-19T17:17:19.892Z,2.47
2019-01-19T17:20:31.000Z,2.42
2019-01-19T17:23:16.274Z,2.38
2019-01-19T17:25:55.653Z,2.33
2019-01-19T17:28:41.092Z,2.34
2019-01-19T17:31:17.591Z,2.33
2019-01-19T17:33:59.999Z,2.22
2019-01-19T17:36:48.563Z,2.09
2019-01-19T17:39:43.307Z,2.05
2019-01-19T17:42:40.708Z,1.94
2019-01-19T17:45:26.441Z,1.83
2019-01-19T17:48:24.347Z,1.90
2019-01-19T17:51:21.850Z,1.84
2019-01-19T17:54:15.083Z,1.80
2019-01-19T17:56:57.170Z,1.89
2019-01-19T17:59:39.395Z,1.89
2019-01-19T18:02:44.754Z,1.85
2019-01-19T18:05:36.492Z,1.84
2019-01-19T18:08:28.613Z,1.80
2019-01-19T18:11:05.143Z,1.81
2019-01-19T18:13:50.927Z,1.85
2019-01-19T18:16:33.405Z,1.86
2019-01-19T18:19:24.616Z,1.89
2019-01-19T18:22:13.248Z,1.88
2019-01-19T18:25:15.533Z,1.83
2019-01-19T18:28:00.998Z,1.85
2019-01-19T18:30:40.713Z,1.79
2019-01-19T18:33:26.277Z,1.76
2019-01-19T18:36:08.396Z,1.78
2019-01-19T18:39:04.853Z,1.72
2019-01-19T18:42:07.235Z,1.72
2019-01-19T18:44:52.523Z,1.67
2019-01-19T18:47:37.966Z,1.65
2019-01-19T18:50:37.098Z,1.65
2019-01-19T18:53:19.908Z,1.55
2019-01-19T18:56:14.799Z,1.53
2019-01-19T18:58:54.265Z,1.55
2019-01-19T19:01:45.769Z,1.46
2019-01-19T19:04:25.342Z,1.93
2019-01-19T19:07:16.760Z,2.13
2019-01-19T19:10:02.223Z,2.20
2019-01-19T19:12:58.673Z,2.19
2019-01-19T19:15:53.432Z,2.20
2019-01-19T19:18:41.826Z,2.08
2019-01-19T19:21:36.312Z,2.05
2019-01-19T19:24:44.309Z,1.94
2019-01-19T19:27:32.716Z,1.86
2019-01-19T19:30:45.641Z,1.79
2019-01-19T19:33:28.149Z,1.73
2019-01-19T19:36:21.375Z,1.71
2019-01-19T19:39:17.844Z,1.57
2019-01-19T19:42:20.181Z,1.48
2019-01-19T19:45:21.206Z,1.44
2019-01-19T19:48:15.779Z,1.31
2019-01-19T19:51:09.791Z,1.25
2019-01-19T19:53:43.197Z,1.08
2019-01-19T19:56:15.544Z,1.11
2019-01-19T19:58:48.876Z,1.12
2019-01-19T20:01:22.315Z,1.14
2019-01-19T20:03:55.721Z,1.15
2019-01-19T20:06:29.560Z,1.15
2019-01-19T20:09:03.031Z,1.13
2019-01-19T20:11:36.626Z,1.15
2019-01-19T20:14:10.091Z,1.15
2019-01-19T20:16:43.449Z,1.15
2019-01-19T20:19:16.848Z,1.10
2019-01-19T20:21:50.282Z,1.02
2019-01-19T20:24:23.684Z,1.03
2019-01-19T20:26:57.397Z,1.01
2019-01-19T20:29:30.733Z,1.00
2019-01-19T20:32:04.738Z,0.89
2019-01-19T20:34:38.137Z,0.79
2019-01-19T20:37:11.500Z,0.80
2019-01-19T20:39:44.911Z,0.82
2019-01-19T20:42:18.279Z,0.77
2019-01-19T20:44:51.674Z,0.71
2019-01-19T20:47:25.043Z,0.74
2019-01-19T20:49:58.443Z,0.76
2019-01-19T20:52:31.803Z,0.77
2019-01-19T20:55:07.770Z,0.79
2019-01-19T20:57:41.273Z,0.75
2019-01-19T21:00:17.114Z,0.71
2019-01-19T21:02:50.484Z,0.70
2019-01-19T21:05:23.880Z,0.63
2019-01-19T21:07:57.244Z,0.62
2019-01-19T21:10:31.871Z,0.63
2019-01-19T21:13:05.762Z,0.62
2019-01-19T21:15:39.157Z,0.55
2019-01-19T21:18:12.611Z,0.55
2019-01-19T21:20:45.945Z,0.54
2019-01-19T21:23:19.317Z,0.44
2019-01-19T21:25:52.725Z,0.42
2019-01-19T21:28:26.182Z,0.41
2019-01-19T21:30:59.507Z,0.40
2019-01-19T21:33:33.264Z,0.39
2019-01-19T21:36:06.878Z,0.33
2019-01-19T21:38:40.308Z,0.36
2019-01-19T21:41:13.702Z,0.38
2019-01-19T21:43:47.065Z,0.39
2019-01-19T21:46:20.460Z,0.35
2019-01-19T21:48:53.815Z,0.37
2019-01-19T21:51:27.214Z,0.33
2019-01-19T21:54:00.582Z,0.36
2019-01-19T21:56:33.982Z,0.34
2019-01-19T21:59:07.430Z,0.27
2019-01-19T22:01:40.832Z,0.29
2019-01-19T22:04:14.190Z,0.29
2019-01-19T22:06:47.599Z,0.29
2019-01-19T22:09:20.969Z,0.18
2019-01-19T22:11:54.289Z,0.09
2019-01-19T22:14:27.668Z,0.07
2019-01-19T22:17:01.002Z,0.09
2019-01-19T22:19:34.438Z,0.04
2019-01-19T22:22:07.902Z,0.04
2019-01-19T22:24:41.324Z,0.06
2019-01-19T22:27:15.714Z,0.06
2019-01-19T22:29:49.241Z,0.08
2019-01-19T22:32:22.811Z,0.08
2019-01-19T22:34:56.169Z,0.01
2019-01-19T22:37:29.500Z,-0.03
2019-01-19T22:40:03.125Z,-0.03
2019-01-19T22:42:36.523Z,-0.04
2019-01-19T22:45:12.306Z,-0.02
2019-01-19T22:47:45.759Z,-0.08
2019-01-19T22:50:19.580Z,-0.16
2019-01-19T22:52:52.978Z,-0.18
2019-01-19T22:55:26.565Z,-0.17
2019-01-19T22:57:59.969Z,-0.16
2019-01-19T23:00:57.244Z,-0.13
2019-01-19T23:03:32.226Z,-0.18
2019-01-19T23:06:05.738Z,-0.22
2019-01-19T23:08:39.146Z,-0.22
2019-01-19T23:11:12.577Z,-0.25
2019-01-19T23:13:45.913Z,-0.27
2019-01-19T23:16:19.346Z,-0.27
2019-01-19T23:18:53.048Z,-0.29
2019-01-19T23:21:26.873Z,-0.35
2019-01-19T23:24:00.225Z,-0.41
2019-01-19T23:26:33.924Z,-0.45
2019-01-19T23:29:07.561Z,-0.39
2019-01-19T23:31:40.981Z,-0.36
2019-01-19T23:34:14.384Z,-0.37
2019-01-19T23:36:48.339Z,-0.34
2019-01-19T23:39:21.741Z,-0.33
2019-01-19T23:41:55.955Z,-0.33
2019-01-19T23:44:29.348Z,-0.35
2019-01-19T23:47:02.987Z,-0.35
2019-01-19T23:49:36.482Z,-0.34
2019-01-19T23:52:10.183Z,-0.39
2019-01-19T23:54:43.691Z,-0.48
2019-01-19T23:57:17.205Z,-0.49
2019-01-19T23:59:50.671Z,-0.45
